sensor_id;sensor_type;location;lat;lon;timestamp;P1;durP1;ratioP1;P2;durP2;ratioP2
34876;SDS011;21086;44.780;17.194;2022-10-19T00:01:11;24.35;;;17.52;;
34876;SDS011;21086;44.780;17.194;2022-10-19T00:03:47;18.60;;;15.60;;
34876;SDS011;21086;44.780;17.194;2022-10-19T00:06:17;16.33;;;14.23;;
34876;SDS011;21086;44.780;17.194;2022-10-19T00:08:59;16.02;;;14.32;;
34876;SDS011;21086;44.780;17.194;2022-10-19T00:11:32;16.45;;;14.00;;
34876;SDS011;21086;44.780;17.194;2022-10-19T00:14:00;16.42;;;14.02;;
34876;SDS011;21086;44.780;17.194;2022-10-19T00:16:29;23.60;;;17.75;;
34876;SDS011;21086;44.780;17.194;2022-10-19T00:18:59;18.20;;;15.05;;
34876;SDS011;21086;44.780;17.194;2022-10-19T00:21:28;17.80;;;14.27;;
34876;SDS011;21086;44.780;17.194;2022-10-19T00:23:55;18.35;;;14.98;;
34876;SDS011;21086;44.780;17.194;2022-10-19T00:26:22;18.63;;;15.20;;
34876;SDS011;21086;44.780;17.194;2022-10-19T00:28:50;18.38;;;14.68;;
34876;SDS011;21086;44.780;17.194;2022-10-19T00:31:19;17.83;;;15.18;;
34876;SDS011;21086;44.780;17.194;2022-10-19T00:33:46;19.17;;;15.95;;
34876;SDS011;21086;44.780;17.194;2022-10-19T00:36:21;22.48;;;16.40;;
34876;SDS011;21086;44.780;17.194;2022-10-19T00:38:51;19.15;;;14.63;;
34876;SDS011;21086;44.780;17.194;2022-10-19T00:41:20;17.38;;;15.30;;
34876;SDS011;21086;44.780;17.194;2022-10-19T00:43:50;18.27;;;14.68;;
34876;SDS011;21086;44.780;17.194;2022-10-19T00:46:20;20.73;;;15.18;;
34876;SDS011;21086;44.780;17.194;2022-10-19T00:48:47;15.57;;;13.98;;
34876;SDS011;21086;44.780;17.194;2022-10-19T00:51:15;14.80;;;12.93;;
34876;SDS011;21086;44.780;17.194;2022-10-19T00:53:43;17.73;;;13.85;;
34876;SDS011;21086;44.780;17.194;2022-10-19T00:56:11;20.80;;;13.50;;
34876;SDS011;21086;44.780;17.194;2022-10-19T00:58:40;15.70;;;12.57;;
34876;SDS011;21086;44.780;17.194;2022-10-19T01:01:09;19.65;;;13.73;;
34876;SDS011;21086;44.780;17.194;2022-10-19T01:03:40;15.93;;;12.15;;
34876;SDS011;21086;44.780;17.194;2022-10-19T01:06:08;17.33;;;14.25;;
34876;SDS011;21086;44.780;17.194;2022-10-19T01:08:36;17.92;;;13.27;;
34876;SDS011;21086;44.780;17.194;2022-10-19T01:13:50;19.10;;;13.70;;
34876;SDS011;21086;44.780;17.194;2022-10-19T01:21:47;20.10;;;15.15;;
34876;SDS011;21086;44.780;17.194;2022-10-19T01:27:26;19.50;;;15.32;;
34876;SDS011;21086;44.780;17.194;2022-10-19T01:39:02;17.63;;;14.40;;
34876;SDS011;21086;44.780;17.194;2022-10-19T01:44:33;19.55;;;15.57;;
34876;SDS011;21086;44.780;17.194;2022-10-19T01:47:06;20.50;;;16.05;;
34876;SDS011;21086;44.780;17.194;2022-10-19T01:49:47;17.83;;;14.88;;
34876;SDS011;21086;44.780;17.194;2022-10-19T01:52:19;15.32;;;13.73;;
34876;SDS011;21086;44.780;17.194;2022-10-19T01:54:49;17.58;;;15.68;;
34876;SDS011;21086;44.780;17.194;2022-10-19T01:57:20;20.00;;;15.20;;
34876;SDS011;21086;44.780;17.194;2022-10-19T01:59:51;14.57;;;12.18;;
34876;SDS011;21086;44.780;17.194;2022-10-19T02:02:21;17.80;;;12.10;;
34876;SDS011;21086;44.780;17.194;2022-10-19T02:04:51;19.30;;;14.32;;
34876;SDS011;21086;44.780;17.194;2022-10-19T02:07:20;17.38;;;12.77;;
34876;SDS011;21086;44.780;17.194;2022-10-19T02:09:48;14.38;;;12.32;;
34876;SDS011;21086;44.780;17.194;2022-10-19T02:12:15;17.75;;;13.45;;
34876;SDS011;21086;44.780;17.194;2022-10-19T02:14:43;17.00;;;13.23;;
34876;SDS011;21086;44.780;17.194;2022-10-19T02:17:16;14.98;;;12.88;;
34876;SDS011;21086;44.780;17.194;2022-10-19T02:19:46;19.83;;;14.77;;
34876;SDS011;21086;44.780;17.194;2022-10-19T02:22:13;15.57;;;13.88;;
34876;SDS011;21086;44.780;17.194;2022-10-19T02:24:40;17.85;;;13.45;;
34876;SDS011;21086;44.780;17.194;2022-10-19T02:27:07;19.25;;;16.40;;
34876;SDS011;21086;44.780;17.194;2022-10-19T02:29:35;21.55;;;15.55;;
34876;SDS011;21086;44.780;17.194;2022-10-19T02:32:03;18.02;;;14.73;;
34876;SDS011;21086;44.780;17.194;2022-10-19T02:34:30;19.10;;;15.10;;
34876;SDS011;21086;44.780;17.194;2022-10-19T02:36:57;21.92;;;16.92;;
34876;SDS011;21086;44.780;17.194;2022-10-19T02:39:24;19.30;;;15.57;;
34876;SDS011;21086;44.780;17.194;2022-10-19T02:44:42;17.58;;;14.02;;
34876;SDS011;21086;44.780;17.194;2022-10-19T02:47:51;18.58;;;13.88;;
34876;SDS011;21086;44.780;17.194;2022-10-19T02:50:22;18.40;;;15.40;;
34876;SDS011;21086;44.780;17.194;2022-10-19T02:52:49;15.45;;;13.85;;
34876;SDS011;21086;44.780;17.194;2022-10-19T02:55:16;17.25;;;13.98;;
34876;SDS011;21086;44.780;17.194;2022-10-19T02:57:43;17.65;;;14.05;;
34876;SDS011;21086;44.780;17.194;2022-10-19T03:00:10;19.88;;;15.50;;
34876;SDS011;21086;44.780;17.194;2022-10-19T03:02:37;17.27;;;15.27;;
34876;SDS011;21086;44.780;17.194;2022-10-19T03:05:04;19.25;;;15.98;;
34876;SDS011;21086;44.780;17.194;2022-10-19T03:07:31;14.88;;;13.30;;
34876;SDS011;21086;44.780;17.194;2022-10-19T03:09:58;19.83;;;13.77;;
34876;SDS011;21086;44.780;17.194;2022-10-19T03:12:25;19.67;;;14.50;;
34876;SDS011;21086;44.780;17.194;2022-10-19T03:14:52;16.70;;;14.23;;
34876;SDS011;21086;44.780;17.194;2022-10-19T03:17:19;16.02;;;13.43;;
34876;SDS011;21086;44.780;17.194;2022-10-19T03:19:46;15.27;;;12.90;;
34876;SDS011;21086;44.780;17.194;2022-10-19T03:22:13;15.48;;;11.25;;
34876;SDS011;21086;44.780;17.194;2022-10-19T03:24:40;19.15;;;14.55;;
34876;SDS011;21086;44.780;17.194;2022-10-19T03:27:06;16.70;;;13.30;;
34876;SDS011;21086;44.780;17.194;2022-10-19T03:29:33;18.10;;;14.35;;
34876;SDS011;21086;44.780;17.194;2022-10-19T03:32:00;13.65;;;11.73;;
34876;SDS011;21086;44.780;17.194;2022-10-19T03:34:27;17.20;;;13.05;;
34876;SDS011;21086;44.780;17.194;2022-10-19T03:36:54;15.20;;;12.63;;
34876;SDS011;21086;44.780;17.194;2022-10-19T03:39:21;13.07;;;10.82;;
34876;SDS011;21086;44.780;17.194;2022-10-19T03:41:48;15.02;;;12.20;;
34876;SDS011;21086;44.780;17.194;2022-10-19T03:44:15;18.15;;;12.68;;
34876;SDS011;21086;44.780;17.194;2022-10-19T03:46:42;19.35;;;13.60;;
34876;SDS011;21086;44.780;17.194;2022-10-19T03:49:09;17.08;;;13.27;;
34876;SDS011;21086;44.780;17.194;2022-10-19T03:51:36;17.52;;;14.65;;
34876;SDS011;21086;44.780;17.194;2022-10-19T03:54:04;17.13;;;14.32;;
34876;SDS011;21086;44.780;17.194;2022-10-19T03:56:36;16.02;;;12.90;;
34876;SDS011;21086;44.780;17.194;2022-10-19T03:59:04;17.52;;;15.00;;
34876;SDS011;21086;44.780;17.194;2022-10-19T04:01:37;17.08;;;13.55;;
34876;SDS011;21086;44.780;17.194;2022-10-19T04:04:09;15.32;;;12.75;;
34876;SDS011;21086;44.780;17.194;2022-10-19T04:06:39;18.40;;;14.52;;
34876;SDS011;21086;44.780;17.194;2022-10-19T04:09:10;14.13;;;12.30;;
34876;SDS011;21086;44.780;17.194;2022-10-19T04:11:39;17.10;;;12.77;;
34876;SDS011;21086;44.780;17.194;2022-10-19T04:14:06;18.95;;;14.38;;
34876;SDS011;21086;44.780;17.194;2022-10-19T04:16:34;19.58;;;15.02;;
34876;SDS011;21086;44.780;17.194;2022-10-19T04:19:01;16.85;;;12.70;;
34876;SDS011;21086;44.780;17.194;2022-10-19T04:21:29;17.75;;;14.30;;
34876;SDS011;21086;44.780;17.194;2022-10-19T04:23:59;19.23;;;15.10;;
34876;SDS011;21086;44.780;17.194;2022-10-19T04:26:39;18.65;;;14.73;;
34876;SDS011;21086;44.780;17.194;2022-10-19T04:29:09;18.50;;;13.95;;
34876;SDS011;21086;44.780;17.194;2022-10-19T04:31:36;16.88;;;13.30;;
34876;SDS011;21086;44.780;17.194;2022-10-19T04:34:04;14.90;;;12.68;;
34876;SDS011;21086;44.780;17.194;2022-10-19T04:36:32;15.55;;;11.35;;
34876;SDS011;21086;44.780;17.194;2022-10-19T04:38:59;15.88;;;12.20;;
34876;SDS011;21086;44.780;17.194;2022-10-19T04:41:26;18.10;;;13.40;;
34876;SDS011;21086;44.780;17.194;2022-10-19T04:43:54;15.18;;;11.93;;
34876;SDS011;21086;44.780;17.194;2022-10-19T04:46:22;13.95;;;11.93;;
34876;SDS011;21086;44.780;17.194;2022-10-19T04:48:50;22.70;;;13.73;;
34876;SDS011;21086;44.780;17.194;2022-10-19T04:51:17;12.68;;;11.35;;
34876;SDS011;21086;44.780;17.194;2022-10-19T04:53:45;15.27;;;11.82;;
34876;SDS011;21086;44.780;17.194;2022-10-19T04:56:22;15.48;;;11.98;;
34876;SDS011;21086;44.780;17.194;2022-10-19T04:58:54;17.33;;;12.70;;
34876;SDS011;21086;44.780;17.194;2022-10-19T05:01:26;17.17;;;13.85;;
34876;SDS011;21086;44.780;17.194;2022-10-19T05:03:55;16.90;;;11.35;;
34876;SDS011;21086;44.780;17.194;2022-10-19T05:06:23;15.52;;;12.77;;
34876;SDS011;21086;44.780;17.194;2022-10-19T05:08:51;18.27;;;12.27;;
34876;SDS011;21086;44.780;17.194;2022-10-19T05:11:19;14.57;;;10.88;;
34876;SDS011;21086;44.780;17.194;2022-10-19T05:13:46;15.50;;;12.40;;
34876;SDS011;21086;44.780;17.194;2022-10-19T05:16:18;14.80;;;12.55;;
34876;SDS011;21086;44.780;17.194;2022-10-19T05:18:50;11.93;;;10.57;;
34876;SDS011;21086;44.780;17.194;2022-10-19T05:21:18;14.35;;;11.98;;
34876;SDS011;21086;44.780;17.194;2022-10-19T05:23:49;15.38;;;11.55;;
34876;SDS011;21086;44.780;17.194;2022-10-19T05:26:18;15.23;;;13.00;;
34876;SDS011;21086;44.780;17.194;2022-10-19T08:35:34;20.58;;;14.20;;
34876;SDS011;21086;44.780;17.194;2022-10-19T08:40:37;15.77;;;14.13;;
34876;SDS011;21086;44.780;17.194;2022-10-19T08:43:07;16.38;;;14.43;;
34876;SDS011;21086;44.780;17.194;2022-10-19T08:48:21;20.38;;;16.75;;
34876;SDS011;21086;44.780;17.194;2022-10-19T08:50:59;22.20;;;16.13;;
34876;SDS011;21086;44.780;17.194;2022-10-19T08:59:20;24.13;;;17.42;;
34876;SDS011;21086;44.780;17.194;2022-10-19T09:02:08;31.08;;;20.05;;
34876;SDS011;21086;44.780;17.194;2022-10-19T09:05:10;28.98;;;20.08;;
34876;SDS011;21086;44.780;17.194;2022-10-19T09:07:46;25.90;;;20.13;;
34876;SDS011;21086;44.780;17.194;2022-10-19T09:10:19;22.67;;;19.50;;
34876;SDS011;21086;44.780;17.194;2022-10-19T09:12:58;26.38;;;19.17;;
34876;SDS011;21086;44.780;17.194;2022-10-19T09:18:39;26.25;;;18.02;;
34876;SDS011;21086;44.780;17.194;2022-10-19T09:23:35;21.27;;;17.20;;
34876;SDS011;21086;44.780;17.194;2022-10-19T09:26:14;22.42;;;17.63;;
34876;SDS011;21086;44.780;17.194;2022-10-19T09:28:49;21.02;;;17.25;;
34876;SDS011;21086;44.780;17.194;2022-10-19T09:31:36;18.33;;;15.98;;
34876;SDS011;21086;44.780;17.194;2022-10-19T09:34:18;18.67;;;15.43;;
34876;SDS011;21086;44.780;17.194;2022-10-19T09:36:53;14.95;;;13.40;;
34876;SDS011;21086;44.780;17.194;2022-10-19T09:39:23;17.27;;;14.05;;
34876;SDS011;21086;44.780;17.194;2022-10-19T09:41:59;19.42;;;14.70;;
34876;SDS011;21086;44.780;17.194;2022-10-19T09:44:39;15.65;;;13.95;;
34876;SDS011;21086;44.780;17.194;2022-10-19T09:47:49;19.17;;;13.35;;
34876;SDS011;21086;44.780;17.194;2022-10-19T09:50:08;12.50;;;10.25;;
34876;SDS011;21086;44.780;17.194;2022-10-19T09:52:42;11.68;;;9.50;;
34876;SDS011;21086;44.780;17.194;2022-10-19T09:55:19;13.35;;;8.48;;
34876;SDS011;21086;44.780;17.194;2022-10-19T09:57:58;11.18;;;8.73;;
34876;SDS011;21086;44.780;17.194;2022-10-19T10:00:31;11.27;;;8.90;;
34876;SDS011;21086;44.780;17.194;2022-10-19T10:03:01;10.40;;;8.73;;
34876;SDS011;21086;44.780;17.194;2022-10-19T10:05:30;12.35;;;8.77;;
34876;SDS011;21086;44.780;17.194;2022-10-19T10:08:02;8.73;;;7.35;;
34876;SDS011;21086;44.780;17.194;2022-10-19T10:10:37;13.35;;;7.55;;
34876;SDS011;21086;44.780;17.194;2022-10-19T10:13:15;10.00;;;7.82;;
34876;SDS011;21086;44.780;17.194;2022-10-19T10:15:48;11.88;;;8.10;;
34876;SDS011;21086;44.780;17.194;2022-10-19T10:18:24;9.30;;;7.35;;
34876;SDS011;21086;44.780;17.194;2022-10-19T10:20:57;8.63;;;7.72;;
34876;SDS011;21086;44.780;17.194;2022-10-19T10:23:26;8.70;;;7.72;;
34876;SDS011;21086;44.780;17.194;2022-10-19T10:25:57;9.75;;;7.53;;
34876;SDS011;21086;44.780;17.194;2022-10-19T10:28:27;8.75;;;7.10;;
34876;SDS011;21086;44.780;17.194;2022-10-19T10:30:59;9.95;;;7.38;;
34876;SDS011;21086;44.780;17.194;2022-10-19T10:33:32;12.35;;;6.85;;
34876;SDS011;21086;44.780;17.194;2022-10-19T10:36:11;6.57;;;5.97;;
34876;SDS011;21086;44.780;17.194;2022-10-19T10:38:43;7.57;;;6.78;;
34876;SDS011;21086;44.780;17.194;2022-10-19T10:41:16;8.73;;;7.07;;
34876;SDS011;21086;44.780;17.194;2022-10-19T10:43:50;10.27;;;7.32;;
34876;SDS011;21086;44.780;17.194;2022-10-19T10:46:28;7.07;;;6.40;;
34876;SDS011;21086;44.780;17.194;2022-10-19T10:49:23;7.30;;;6.55;;
34876;SDS011;21086;44.780;17.194;2022-10-19T10:51:54;8.20;;;6.95;;
34876;SDS011;21086;44.780;17.194;2022-10-19T10:54:27;10.30;;;6.75;;
34876;SDS011;21086;44.780;17.194;2022-10-19T10:59:55;7.00;;;6.30;;
34876;SDS011;21086;44.780;17.194;2022-10-19T11:03:29;6.68;;;5.95;;
34876;SDS011;21086;44.780;17.194;2022-10-19T11:05:53;8.90;;;6.88;;
34876;SDS011;21086;44.780;17.194;2022-10-19T11:08:26;7.57;;;6.05;;
34876;SDS011;21086;44.780;17.194;2022-10-19T11:11:12;6.43;;;5.78;;
34876;SDS011;21086;44.780;17.194;2022-10-19T11:16:18;5.47;;;4.97;;
34876;SDS011;21086;44.780;17.194;2022-10-19T11:21:25;6.70;;;4.72;;
34876;SDS011;21086;44.780;17.194;2022-10-19T11:27:00;5.75;;;4.43;;
34876;SDS011;21086;44.780;17.194;2022-10-19T11:30:08;5.43;;;4.88;;
34876;SDS011;21086;44.780;17.194;2022-10-19T11:33:22;5.78;;;4.50;;
34876;SDS011;21086;44.780;17.194;2022-10-19T11:38:19;7.85;;;5.72;;
34876;SDS011;21086;44.780;17.194;2022-10-19T11:41:14;5.75;;;4.82;;
34876;SDS011;21086;44.780;17.194;2022-10-19T11:43:57;4.80;;;4.30;;
34876;SDS011;21086;44.780;17.194;2022-10-19T11:51:38;8.75;;;4.85;;
34876;SDS011;21086;44.780;17.194;2022-10-19T12:05:41;9.13;;;3.42;;
34876;SDS011;21086;44.780;17.194;2022-10-19T12:08:37;5.10;;;3.42;;
34876;SDS011;21086;44.780;17.194;2022-10-19T12:14:16;5.13;;;2.42;;
34876;SDS011;21086;44.780;17.194;2022-10-19T12:16:49;3.17;;;2.15;;
34876;SDS011;21086;44.780;17.194;2022-10-19T12:19:30;3.28;;;2.42;;
34876;SDS011;21086;44.780;17.194;2022-10-19T12:22:02;2.40;;;2.20;;
34876;SDS011;21086;44.780;17.194;2022-10-19T12:24:31;6.53;;;3.33;;
34876;SDS011;21086;44.780;17.194;2022-10-19T12:26:59;4.25;;;2.88;;
34876;SDS011;21086;44.780;17.194;2022-10-19T12:29:34;3.90;;;2.75;;
34876;SDS011;21086;44.780;17.194;2022-10-19T12:32:05;5.07;;;3.30;;
34876;SDS011;21086;44.780;17.194;2022-10-19T12:34:48;3.58;;;3.28;;
34876;SDS011;21086;44.780;17.194;2022-10-19T12:40:45;4.00;;;3.22;;
34876;SDS011;21086;44.780;17.194;2022-10-19T12:43:34;4.07;;;3.45;;
34876;SDS011;21086;44.780;17.194;2022-10-19T12:46:25;4.75;;;3.60;;
34876;SDS011;21086;44.780;17.194;2022-10-19T12:51:52;3.85;;;3.22;;
34876;SDS011;21086;44.780;17.194;2022-10-19T12:54:38;3.78;;;3.33;;
34876;SDS011;21086;44.780;17.194;2022-10-19T12:57:20;4.45;;;3.42;;
34876;SDS011;21086;44.780;17.194;2022-10-19T12:59:59;4.00;;;3.00;;
34876;SDS011;21086;44.780;17.194;2022-10-19T13:02:33;4.20;;;3.45;;
34876;SDS011;21086;44.780;17.194;2022-10-19T13:05:01;3.60;;;3.15;;
34876;SDS011;21086;44.780;17.194;2022-10-19T13:07:30;3.65;;;3.30;;
34876;SDS011;21086;44.780;17.194;2022-10-19T13:10:01;3.60;;;3.30;;
34876;SDS011;21086;44.780;17.194;2022-10-19T13:12:41;3.20;;;2.90;;
34876;SDS011;21086;44.780;17.194;2022-10-19T13:17:59;3.50;;;3.20;;
34876;SDS011;21086;44.780;17.194;2022-10-19T13:25:30;3.67;;;3.38;;
34876;SDS011;21086;44.780;17.194;2022-10-19T13:38:35;3.33;;;2.67;;
34876;SDS011;21086;44.780;17.194;2022-10-19T13:41:24;3.58;;;2.85;;
34876;SDS011;21086;44.780;17.194;2022-10-19T13:46:31;3.22;;;2.50;;
34876;SDS011;21086;44.780;17.194;2022-10-19T13:49:18;4.45;;;2.47;;
34876;SDS011;21086;44.780;17.194;2022-10-19T14:05:23;4.38;;;2.80;;
34876;SDS011;21086;44.780;17.194;2022-10-19T14:08:12;6.03;;;2.90;;
34876;SDS011;21086;44.780;17.194;2022-10-19T14:13:44;3.83;;;3.25;;
34876;SDS011;21086;44.780;17.194;2022-10-19T14:16:18;3.42;;;2.97;;
34876;SDS011;21086;44.780;17.194;2022-10-19T14:18:54;2.95;;;2.65;;
34876;SDS011;21086;44.780;17.194;2022-10-19T14:21:31;3.65;;;2.92;;
34876;SDS011;21086;44.780;17.194;2022-10-19T14:24:02;4.38;;;2.70;;
34876;SDS011;21086;44.780;17.194;2022-10-19T14:26:47;8.38;;;3.00;;
34876;SDS011;21086;44.780;17.194;2022-10-19T14:29:14;5.35;;;2.90;;
34876;SDS011;21086;44.780;17.194;2022-10-19T14:31:41;3.30;;;3.00;;
34876;SDS011;21086;44.780;17.194;2022-10-19T14:34:08;7.18;;;3.20;;
34876;SDS011;21086;44.780;17.194;2022-10-19T14:36:36;3.65;;;3.35;;
34876;SDS011;21086;44.780;17.194;2022-10-19T14:39:23;5.97;;;3.95;;
34876;SDS011;21086;44.780;17.194;2022-10-19T14:41:56;5.53;;;4.32;;
34876;SDS011;21086;44.780;17.194;2022-10-19T14:44:40;4.82;;;4.18;;
34876;SDS011;21086;44.780;17.194;2022-10-19T14:47:21;4.35;;;3.67;;
34876;SDS011;21086;44.780;17.194;2022-10-19T14:49:51;6.43;;;4.93;;
34876;SDS011;21086;44.780;17.194;2022-10-19T14:52:20;6.25;;;5.25;;
34876;SDS011;21086;44.780;17.194;2022-10-19T14:54:54;5.65;;;5.05;;
34876;SDS011;21086;44.780;17.194;2022-10-19T14:57:25;7.57;;;5.63;;
34876;SDS011;21086;44.780;17.194;2022-10-19T14:59:56;6.80;;;5.75;;
34876;SDS011;21086;44.780;17.194;2022-10-19T15:02:38;5.75;;;5.13;;
34876;SDS011;21086;44.780;17.194;2022-10-19T15:05:25;6.78;;;5.35;;
34876;SDS011;21086;44.780;17.194;2022-10-19T15:07:54;6.25;;;5.60;;
34876;SDS011;21086;44.780;17.194;2022-10-19T15:10:27;9.82;;;6.32;;
34876;SDS011;21086;44.780;17.194;2022-10-19T15:13:02;9.20;;;6.88;;
34876;SDS011;21086;44.780;17.194;2022-10-19T15:15:32;7.97;;;6.82;;
34876;SDS011;21086;44.780;17.194;2022-10-19T15:20:37;8.88;;;7.18;;
34876;SDS011;21086;44.780;17.194;2022-10-19T15:23:33;11.15;;;8.18;;
34876;SDS011;21086;44.780;17.194;2022-10-19T15:26:49;13.10;;;8.93;;
34876;SDS011;21086;44.780;17.194;2022-10-19T15:28:50;12.40;;;10.10;;
34876;SDS011;21086;44.780;17.194;2022-10-19T15:31:19;11.77;;;9.25;;
34876;SDS011;21086;44.780;17.194;2022-10-19T15:33:51;12.13;;;9.35;;
34876;SDS011;21086;44.780;17.194;2022-10-19T15:36:21;16.15;;;9.02;;
34876;SDS011;21086;44.780;17.194;2022-10-19T15:39:05;12.57;;;9.20;;
34876;SDS011;21086;44.780;17.194;2022-10-19T15:41:51;12.65;;;9.68;;
34876;SDS011;21086;44.780;17.194;2022-10-19T15:52:17;12.60;;;9.90;;
34876;SDS011;21086;44.780;17.194;2022-10-19T15:54:50;15.93;;;10.82;;
34876;SDS011;21086;44.780;17.194;2022-10-19T15:57:24;14.25;;;9.63;;
34876;SDS011;21086;44.780;17.194;2022-10-19T15:59:53;13.23;;;10.55;;
34876;SDS011;21086;44.780;17.194;2022-10-19T16:02:22;9.90;;;8.88;;
34876;SDS011;21086;44.780;17.194;2022-10-19T16:04:52;11.75;;;8.93;;
34876;SDS011;21086;44.780;17.194;2022-10-19T16:07:23;13.38;;;9.27;;
34876;SDS011;21086;44.780;17.194;2022-10-19T16:09:55;12.65;;;9.73;;
34876;SDS011;21086;44.780;17.194;2022-10-19T16:12:23;11.65;;;9.90;;
34876;SDS011;21086;44.780;17.194;2022-10-19T16:14:52;17.55;;;11.63;;
34876;SDS011;21086;44.780;17.194;2022-10-19T16:17:19;21.25;;;15.30;;
34876;SDS011;21086;44.780;17.194;2022-10-19T16:19:47;23.67;;;20.00;;
34876;SDS011;21086;44.780;17.194;2022-10-19T16:22:15;21.23;;;17.27;;
34876;SDS011;21086;44.780;17.194;2022-10-19T16:24:42;23.00;;;16.15;;
34876;SDS011;21086;44.780;17.194;2022-10-19T16:27:08;19.75;;;13.45;;
34876;SDS011;21086;44.780;17.194;2022-10-19T16:29:41;16.50;;;12.88;;
34876;SDS011;21086;44.780;17.194;2022-10-19T16:32:08;17.30;;;13.23;;
34876;SDS011;21086;44.780;17.194;2022-10-19T16:34:35;16.88;;;12.90;;
34876;SDS011;21086;44.780;17.194;2022-10-19T16:37:03;18.27;;;13.15;;
34876;SDS011;21086;44.780;17.194;2022-10-19T16:39:32;21.23;;;14.95;;
34876;SDS011;21086;44.780;17.194;2022-10-19T16:41:59;17.33;;;13.73;;
34876;SDS011;21086;44.780;17.194;2022-10-19T16:44:27;19.63;;;13.55;;
34876;SDS011;21086;44.780;17.194;2022-10-19T16:46:55;16.58;;;13.00;;
34876;SDS011;21086;44.780;17.194;2022-10-19T16:49:23;14.93;;;10.00;;
34876;SDS011;21086;44.780;17.194;2022-10-19T16:51:50;14.75;;;10.40;;
34876;SDS011;21086;44.780;17.194;2022-10-19T16:54:22;21.23;;;13.52;;
34876;SDS011;21086;44.780;17.194;2022-10-19T16:56:51;19.85;;;13.65;;
34876;SDS011;21086;44.780;17.194;2022-10-19T16:59:18;30.55;;;19.05;;
34876;SDS011;21086;44.780;17.194;2022-10-19T17:01:45;26.75;;;18.67;;
34876;SDS011;21086;44.780;17.194;2022-10-19T17:04:14;23.77;;;17.35;;
34876;SDS011;21086;44.780;17.194;2022-10-19T17:06:43;20.90;;;15.30;;
34876;SDS011;21086;44.780;17.194;2022-10-19T17:09:10;28.52;;;21.08;;
34876;SDS011;21086;44.780;17.194;2022-10-19T17:11:58;21.33;;;14.88;;
34876;SDS011;21086;44.780;17.194;2022-10-19T17:14:25;28.23;;;20.90;;
34876;SDS011;21086;44.780;17.194;2022-10-19T17:16:53;22.23;;;18.05;;
34876;SDS011;21086;44.780;17.194;2022-10-19T17:19:20;18.65;;;14.75;;
34876;SDS011;21086;44.780;17.194;2022-10-19T17:21:48;24.90;;;20.67;;
34876;SDS011;21086;44.780;17.194;2022-10-19T17:24:16;31.40;;;22.70;;
34876;SDS011;21086;44.780;17.194;2022-10-19T17:26:48;32.78;;;24.75;;
34876;SDS011;21086;44.780;17.194;2022-10-19T17:29:17;30.40;;;22.30;;
34876;SDS011;21086;44.780;17.194;2022-10-19T17:31:46;26.48;;;19.80;;
34876;SDS011;21086;44.780;17.194;2022-10-19T17:34:14;21.02;;;17.33;;
34876;SDS011;21086;44.780;17.194;2022-10-19T17:36:42;24.02;;;18.10;;
34876;SDS011;21086;44.780;17.194;2022-10-19T17:39:11;18.70;;;14.32;;
34876;SDS011;21086;44.780;17.194;2022-10-19T17:41:54;23.63;;;15.13;;
34876;SDS011;21086;44.780;17.194;2022-10-19T17:44:23;21.48;;;14.35;;
34876;SDS011;21086;44.780;17.194;2022-10-19T17:46:50;17.45;;;13.52;;
34876;SDS011;21086;44.780;17.194;2022-10-19T17:49:17;33.90;;;19.27;;
34876;SDS011;21086;44.780;17.194;2022-10-19T17:51:44;29.95;;;19.05;;
34876;SDS011;21086;44.780;17.194;2022-10-19T17:54:12;26.55;;;15.10;;
34876;SDS011;21086;44.780;17.194;2022-10-19T17:56:41;23.42;;;14.35;;
34876;SDS011;21086;44.780;17.194;2022-10-19T17:59:11;25.02;;;18.20;;
34876;SDS011;21086;44.780;17.194;2022-10-19T18:01:39;37.00;;;23.15;;
34876;SDS011;21086;44.780;17.194;2022-10-19T18:04:08;30.58;;;24.42;;
34876;SDS011;21086;44.780;17.194;2022-10-19T18:09:08;28.42;;;23.38;;
34876;SDS011;21086;44.780;17.194;2022-10-19T18:11:40;27.00;;;21.55;;
34876;SDS011;21086;44.780;17.194;2022-10-19T18:14:11;33.90;;;20.65;;
34876;SDS011;21086;44.780;17.194;2022-10-19T18:16:40;25.05;;;20.45;;
34876;SDS011;21086;44.780;17.194;2022-10-19T18:19:12;24.85;;;19.95;;
34876;SDS011;21086;44.780;17.194;2022-10-19T18:35:19;34.25;;;23.70;;
34876;SDS011;21086;44.780;17.194;2022-10-19T23:24:07;15.13;;;9.93;;
